Time;durP1;ratioP1;P1;durP2;ratioP2;P2;SDS_P1;SDS_P2;PMS_P1;PMS_P2;Temp;Humidity;BMP_temperature;BMP_pressure;BME280_temperature;BME280_humidity;BME280_pressure;Samples;Min_cycle;Max_cycle;Signal;HPM_P1;HPM_P2
2023/09/27 00:01:08;;;;;;;2.78;1.25;;;17.80;60.00;;;;;;5174366;27;20059;-66
2023/09/27 00:03:33;;;;;;;0.77;0.77;;;17.70;59.80;;;;;;5168197;27;20078;-66
2023/09/27 00:05:59;;;;;;;1.25;0.77;;;17.70;59.70;;;;;;5160353;27;20026;-66
2023/09/27 00:08:24;;;;;;;0.80;0.80;;;17.70;59.60;;;;;;5172320;27;20030;-67
2023/09/27 00:10:50;;;;;;;1.27;0.95;;;17.60;59.60;;;;;;5173635;27;20022;-67
2023/09/27 00:13:17;;;;;;;0.60;0.60;;;17.50;59.70;;;;;;5173371;27;20482;-66
2023/09/27 00:15:43;;;;;;;0.90;0.90;;;17.50;59.70;;;;;;5174814;27;20018;-66
2023/09/27 00:18:09;;;;;;;0.50;0.50;;;17.40;59.90;;;;;;5174119;27;20041;-66
2023/09/27 00:20:35;;;;;;;0.47;0.47;;;17.40;59.90;;;;;;5174245;27;20018;-67
2023/09/27 00:23:01;;;;;;;0.50;0.50;;;17.40;59.80;;;;;;5174170;27;20427;-66
2023/09/27 00:25:26;;;;;;;0.40;0.40;;;17.30;59.80;;;;;;5173956;27;20105;-66
2023/09/27 00:27:52;;;;;;;0.40;0.40;;;17.30;59.80;;;;;;5173929;27;20025;-67
2023/09/27 00:30:17;;;;;;;0.35;0.35;;;17.30;59.80;;;;;;5173925;27;20022;-66
2023/09/27 00:32:46;;;;;;;0.40;0.40;;;17.20;59.70;;;;;;5173497;27;20038;-66
2023/09/27 00:35:19;;;;;;;0.50;0.50;;;17.20;59.70;;;;;;5174238;27;20557;-66
2023/09/27 00:37:46;;;;;;;0.40;0.40;;;17.10;59.70;;;;;;5160797;27;20387;-66
2023/09/27 00:40:13;;;;;;;1.65;0.98;;;17.10;59.70;;;;;;5160930;27;20038;-66
2023/09/27 00:42:38;;;;;;;0.40;0.40;;;17.00;59.70;;;;;;5173869;27;20498;-66
2023/09/27 00:45:06;;;;;;;0.38;0.38;;;17.00;59.70;;;;;;5174332;27;20026;-66
2023/09/27 00:47:33;;;;;;;0.60;0.60;;;17.00;59.70;;;;;;5173776;27;20089;-66
2023/09/27 00:49:59;;;;;;;0.40;0.40;;;16.90;59.80;;;;;;5174179;27;20045;-66
2023/09/27 00:52:25;;;;;;;0.40;0.40;;;16.80;59.80;;;;;;5172584;27;20018;-66
2023/09/27 00:54:53;;;;;;;0.47;0.47;;;16.80;59.80;;;;;;5174046;27;20163;-67
2023/09/27 00:57:19;;;;;;;0.82;0.77;;;16.80;59.80;;;;;;5173356;27;20046;-67
2023/09/27 00:59:45;;;;;;;0.40;0.40;;;16.80;59.80;;;;;;5174151;27;20467;-66
2023/09/27 01:02:12;;;;;;;0.43;0.43;;;16.80;59.90;;;;;;5173537;27;20109;-66
2023/09/27 01:04:39;;;;;;;0.40;0.40;;;16.70;60.00;;;;;;5174276;27;20026;-66
2023/09/27 01:07:05;;;;;;;0.40;0.40;;;16.70;59.90;;;;;;5172587;27;20015;-66
2023/09/27 01:09:32;;;;;;;0.45;0.45;;;16.70;60.00;;;;;;5174019;27;20027;-66
2023/09/27 01:11:57;;;;;;;0.40;0.40;;;16.70;60.00;;;;;;5173867;27;20038;-66
2023/09/27 01:14:23;;;;;;;0.40;0.40;;;16.70;60.00;;;;;;5173901;27;20084;-67
2023/09/27 01:16:49;;;;;;;0.50;0.50;;;16.70;60.00;;;;;;5173662;27;20019;-66
2023/09/27 01:19:14;;;;;;;0.43;0.43;;;16.70;59.90;;;;;;5173662;27;20081;-66
2023/09/27 01:21:40;;;;;;;0.40;0.40;;;16.70;60.00;;;;;;5173711;27;20019;-66
2023/09/27 01:24:06;;;;;;;0.40;0.40;;;16.70;60.00;;;;;;5173297;27;20041;-66
2023/09/27 01:26:36;;;;;;;0.55;0.55;;;16.60;60.20;;;;;;5173501;27;20029;-66
2023/09/27 01:29:02;;;;;;;0.52;0.52;;;16.60;60.50;;;;;;5173597;27;20038;-67
2023/09/27 01:31:27;;;;;;;0.35;0.35;;;16.60;60.40;;;;;;5173470;27;20014;-66
2023/09/27 01:33:53;;;;;;;0.40;0.40;;;16.60;60.50;;;;;;5173313;27;20057;-66
2023/09/27 01:36:18;;;;;;;0.45;0.45;;;16.60;60.40;;;;;;5172637;27;20101;-66
2023/09/27 01:38:44;;;;;;;0.47;0.47;;;16.60;60.50;;;;;;5152685;27;20034;-67
2023/09/27 01:41:09;;;;;;;0.70;0.70;;;16.50;60.50;;;;;;5168179;27;20027;-66
2023/09/27 01:43:35;;;;;;;0.50;0.50;;;16.50;60.50;;;;;;5171468;27;20049;-66
2023/09/27 01:46:00;;;;;;;0.50;0.50;;;16.50;60.40;;;;;;5173233;27;20045;-66
2023/09/27 01:48:26;;;;;;;0.63;0.63;;;16.40;60.40;;;;;;5173023;27;20042;-66
2023/09/27 01:50:51;;;;;;;0.50;0.50;;;16.40;60.30;;;;;;5173117;27;20037;-67
2023/09/27 01:53:17;;;;;;;0.40;0.40;;;16.30;60.20;;;;;;5173388;27;20167;-66
2023/09/27 01:55:42;;;;;;;0.40;0.40;;;16.30;60.20;;;;;;5172869;27;20383;-66
2023/09/27 01:58:08;;;;;;;0.60;0.60;;;16.20;60.30;;;;;;5173115;27;20527;-66
2023/09/27 02:00:35;;;;;;;0.38;0.38;;;16.20;60.30;;;;;;5172876;27;20018;-66
2023/09/27 02:03:02;;;;;;;0.50;0.50;;;16.20;60.40;;;;;;5172640;27;20023;-66
2023/09/27 02:05:30;;;;;;;0.50;0.50;;;16.10;60.40;;;;;;5172873;27;20066;-66
2023/09/27 02:07:56;;;;;;;0.55;0.55;;;16.10;60.60;;;;;;5173041;27;20014;-67
2023/09/27 02:10:22;;;;;;;2.17;1.38;;;16.00;60.80;;;;;;5176717;27;20056;-68
2023/09/27 02:12:47;;;;;;;0.65;0.65;;;16.10;60.90;;;;;;5176843;27;20066;-66
2023/09/27 02:15:14;;;;;;;0.50;0.50;;;16.00;61.30;;;;;;5176636;27;20042;-66
2023/09/27 02:17:41;;;;;;;0.40;0.40;;;16.10;61.50;;;;;;5176502;27;20479;-66
2023/09/27 02:20:10;;;;;;;0.40;0.40;;;16.10;61.30;;;;;;5176866;27;20045;-66
2023/09/27 02:22:36;;;;;;;0.50;0.50;;;16.00;61.20;;;;;;5176332;27;20034;-66
2023/09/27 02:25:02;;;;;;;0.40;0.40;;;16.00;61.00;;;;;;5176837;27;20156;-66
2023/09/27 02:27:28;;;;;;;0.50;0.50;;;16.00;61.10;;;;;;5176694;27;20026;-66
2023/09/27 02:29:53;;;;;;;0.50;0.50;;;16.00;61.00;;;;;;5176993;27;20030;-66
2023/09/27 02:32:19;;;;;;;0.50;0.50;;;16.00;60.90;;;;;;5176113;27;20531;-67
2023/09/27 02:34:46;;;;;;;0.35;0.35;;;16.00;60.90;;;;;;5176535;27;20065;-67
2023/09/27 02:37:15;;;;;;;0.40;0.40;;;15.90;61.10;;;;;;5167546;27;20022;-67
2023/09/27 02:39:41;;;;;;;0.40;0.40;;;15.90;61.00;;;;;;5158914;27;20018;-66
2023/09/27 02:42:07;;;;;;;0.80;0.70;;;15.80;61.00;;;;;;5175762;27;20364;-66
2023/09/27 02:44:32;;;;;;;0.50;0.50;;;15.80;61.00;;;;;;5176164;27;20074;-66
2023/09/27 02:46:58;;;;;;;0.50;0.50;;;15.80;61.00;;;;;;5175945;27;20027;-67
2023/09/27 02:49:24;;;;;;;0.80;0.80;;;15.80;60.90;;;;;;5175875;27;20498;-66
2023/09/27 02:51:53;;;;;;;0.43;0.43;;;15.70;60.90;;;;;;5175919;27;20026;-67
2023/09/27 02:54:19;;;;;;;0.75;0.75;;;15.70;60.90;;;;;;5176113;27;20575;-67
2023/09/27 02:56:45;;;;;;;0.50;0.50;;;15.60;60.80;;;;;;5175866;27;20051;-66
2023/09/27 02:59:11;;;;;;;0.70;0.70;;;15.50;60.80;;;;;;5175510;27;20116;-67
2023/09/27 03:01:41;;;;;;;0.40;0.40;;;15.50;60.80;;;;;;5175616;27;20026;-67
2023/09/27 03:04:08;;;;;;;0.88;0.88;;;15.50;60.90;;;;;;5175936;27;20031;-67
2023/09/27 03:06:36;;;;;;;0.40;0.40;;;15.40;61.00;;;;;;5175493;27;20019;-67
2023/09/27 03:09:03;;;;;;;0.45;0.45;;;15.40;61.10;;;;;;5175858;27;20102;-67
2023/09/27 03:11:29;;;;;;;0.43;0.43;;;15.30;61.10;;;;;;5175015;27;20015;-67
2023/09/27 03:13:55;;;;;;;0.40;0.40;;;15.30;61.20;;;;;;5175396;27;20031;-67
2023/09/27 03:16:20;;;;;;;0.50;0.50;;;15.30;61.10;;;;;;5175636;27;20030;-67
2023/09/27 03:18:46;;;;;;;0.73;0.73;;;15.30;61.10;;;;;;5175005;27;20027;-67
2023/09/27 03:21:12;;;;;;;0.50;0.50;;;15.30;61.30;;;;;;5175117;27;20540;-67
2023/09/27 03:23:37;;;;;;;0.50;0.50;;;15.30;61.30;;;;;;5174965;27;20048;-67
2023/09/27 03:26:04;;;;;;;0.60;0.60;;;15.20;61.40;;;;;;5175230;27;20014;-67
2023/09/27 03:28:30;;;;;;;0.70;0.70;;;15.20;61.30;;;;;;5175280;27;20050;-67
2023/09/27 03:30:55;;;;;;;0.50;0.50;;;15.20;61.40;;;;;;5174970;27;20062;-67
2023/09/27 03:33:21;;;;;;;0.80;0.80;;;15.20;61.40;;;;;;5174986;27;20441;-67
2023/09/27 03:35:47;;;;;;;0.60;0.60;;;15.10;61.50;;;;;;5174703;27;20018;-67
2023/09/27 03:38:12;;;;;;;0.40;0.40;;;15.10;61.50;;;;;;5157736;27;20098;-67
2023/09/27 03:40:41;;;;;;;0.50;0.50;;;15.10;61.40;;;;;;5152674;27;20022;-67
2023/09/27 03:43:06;;;;;;;0.32;0.32;;;15.10;61.40;;;;;;5161489;27;20026;-67
2023/09/27 03:45:35;;;;;;;0.98;0.95;;;15.00;61.30;;;;;;5174531;27;20026;-66
2023/09/27 03:48:02;;;;;;;0.40;0.40;;;15.00;61.30;;;;;;5174285;27;20049;-67
2023/09/27 03:50:28;;;;;;;0.40;0.40;;;15.00;61.40;;;;;;5174570;27;20094;-66
2023/09/27 03:52:56;;;;;;;0.52;0.52;;;15.00;61.50;;;;;;5174371;27;20064;-67
2023/09/27 03:55:22;;;;;;;0.50;0.50;;;15.00;61.50;;;;;;5174436;27;20367;-67
2023/09/27 03:57:47;;;;;;;0.40;0.40;;;15.00;61.50;;;;;;5174344;27;20033;-67
2023/09/27 04:00:14;;;;;;;0.40;0.40;;;15.00;61.60;;;;;;5174648;27;20026;-67
2023/09/27 04:02:41;;;;;;;0.40;0.40;;;15.00;61.70;;;;;;5174459;27;20382;-67
2023/09/27 04:05:07;;;;;;;0.40;0.40;;;15.00;61.70;;;;;;5174699;27;20026;-67
2023/09/27 04:07:33;;;;;;;0.50;0.50;;;15.00;61.70;;;;;;5173662;27;20474;-67
2023/09/27 04:10:00;;;;;;;0.60;0.60;;;15.00;61.80;;;;;;5174751;27;20074;-67
2023/09/27 04:12:25;;;;;;;0.43;0.43;;;15.00;61.90;;;;;;5174359;27;20375;-67
2023/09/27 04:14:51;;;;;;;0.50;0.50;;;15.00;62.10;;;;;;5174259;27;20042;-67
2023/09/27 04:17:17;;;;;;;0.50;0.50;;;15.00;62.40;;;;;;5174400;27;20534;-67
2023/09/27 04:19:43;;;;;;;0.50;0.50;;;15.00;62.40;;;;;;5172802;27;20383;-67
2023/09/27 04:22:08;;;;;;;0.50;0.50;;;15.00;62.70;;;;;;5166523;27;20030;-67
2023/09/27 04:24:34;;;;;;;0.40;0.40;;;15.00;62.60;;;;;;5156436;27;20026;-67
2023/09/27 04:26:59;;;;;;;0.70;0.70;;;15.10;62.60;;;;;;5173917;27;20019;-67
2023/09/27 04:29:26;;;;;;;2.17;0.85;;;15.10;62.70;;;;;;5174144;27;20045;-67
2023/09/27 04:31:52;;;;;;;0.50;0.50;;;15.10;62.60;;;;;;5172274;27;20023;-67
2023/09/27 04:34:17;;;;;;;0.50;0.50;;;15.10;62.40;;;;;;5174054;27;20522;-67
2023/09/27 04:36:44;;;;;;;0.40;0.40;;;15.10;62.50;;;;;;5173430;27;20022;-67
2023/09/27 04:39:12;;;;;;;0.40;0.40;;;15.10;62.50;;;;;;5172776;27;20098;-67
2023/09/27 04:41:38;;;;;;;0.45;0.45;;;15.10;62.60;;;;;;5173513;27;20034;-67
2023/09/27 04:44:05;;;;;;;1.13;0.90;;;15.10;62.50;;;;;;5173776;27;20026;-67
2023/09/27 04:46:31;;;;;;;0.50;0.50;;;15.00;62.60;;;;;;5173698;27;20109;-67
2023/09/27 04:48:57;;;;;;;0.40;0.40;;;15.00;62.60;;;;;;5173970;27;20463;-67
2023/09/27 04:51:22;;;;;;;0.40;0.40;;;15.00;62.90;;;;;;5174219;27;20107;-67
2023/09/27 04:53:48;;;;;;;0.40;0.40;;;15.00;63.40;;;;;;5172941;27;20079;-67
2023/09/27 04:56:13;;;;;;;0.50;0.50;;;15.00;63.30;;;;;;5173571;27;20053;-67
2023/09/27 04:58:42;;;;;;;0.60;0.60;;;15.00;63.20;;;;;;5171714;27;20037;-67
2023/09/27 05:01:09;;;;;;;0.40;0.40;;;15.00;63.40;;;;;;5172423;27;20079;-67
2023/09/27 05:03:35;;;;;;;0.70;0.70;;;15.00;63.40;;;;;;5172861;27;20420;-67
2023/09/27 05:06:01;;;;;;;0.40;0.40;;;15.00;63.30;;;;;;5173513;27;20023;-68
2023/09/27 05:08:26;;;;;;;3.50;1.27;;;15.00;63.20;;;;;;5172491;27;20030;-67
2023/09/27 05:10:52;;;;;;;0.50;0.50;;;14.90;63.20;;;;;;5173003;27;20383;-68
2023/09/27 05:13:21;;;;;;;0.50;0.50;;;15.00;63.40;;;;;;5159801;27;20066;-68
2023/09/27 05:15:51;;;;;;;0.50;0.50;;;14.90;63.40;;;;;;5152575;27;20047;-67
2023/09/27 05:18:16;;;;;;;0.30;0.30;;;14.90;63.50;;;;;;5152368;27;20037;-67
2023/09/27 05:20:43;;;;;;;0.50;0.50;;;14.80;63.60;;;;;;5166736;27;20034;-67
2023/09/27 05:23:09;;;;;;;0.30;0.30;;;14.80;63.70;;;;;;5173236;27;20030;-67
2023/09/27 05:25:35;;;;;;;0.50;0.50;;;14.80;63.80;;;;;;5173364;27;20037;-67
2023/09/27 05:28:00;;;;;;;0.63;0.63;;;14.80;63.90;;;;;;5173192;27;20025;-67
2023/09/27 05:30:26;;;;;;;0.40;0.40;;;14.70;64.10;;;;;;5173447;27;20471;-67
2023/09/27 05:32:52;;;;;;;0.40;0.40;;;14.80;64.60;;;;;;5173109;27;20022;-67
2023/09/27 05:35:17;;;;;;;0.70;0.70;;;14.90;65.00;;;;;;5158333;27;20411;-67
2023/09/27 05:37:43;;;;;;;0.40;0.40;;;15.10;65.40;;;;;;5151652;27;20382;-68
2023/09/27 05:40:10;;;;;;;0.50;0.50;;;15.30;65.70;;;;;;5161302;27;20067;-67
2023/09/27 05:42:40;;;;;;;0.60;0.60;;;15.50;66.00;;;;;;5174402;27;20443;-68
2023/09/27 05:45:07;;;;;;;0.57;0.57;;;15.70;66.40;;;;;;5177702;27;20029;-68
2023/09/27 05:47:33;;;;;;;0.50;0.50;;;16.00;66.80;;;;;;5177252;27;20029;-67
2023/09/27 05:49:58;;;;;;;0.47;0.47;;;16.20;67.30;;;;;;5177415;27;20030;-67
2023/09/27 05:52:25;;;;;;;0.40;0.40;;;16.60;67.70;;;;;;5176748;27;20041;-68
2023/09/27 05:54:51;;;;;;;0.50;0.50;;;16.90;68.00;;;;;;5170323;27;20480;-69
2023/09/27 05:57:17;;;;;;;0.57;0.57;;;17.30;68.30;;;;;;5171478;27;20030;-68
2023/09/27 05:59:45;;;;;;;0.40;0.40;;;17.70;68.60;;;;;;5165691;27;20360;-68
2023/09/27 06:02:20;;;;;;;0.63;0.63;;;18.00;68.90;;;;;;5175238;27;20026;-68
2023/09/27 06:04:47;;;;;;;0.40;0.40;;;18.50;69.00;;;;;;5177378;27;20352;-68
2023/09/27 06:07:17;;;;;;;0.60;0.60;;;18.90;68.80;;;;;;5176783;27;20082;-68
2023/09/27 06:09:43;;;;;;;0.65;0.65;;;19.30;68.60;;;;;;5169620;27;20090;-68
2023/09/27 06:12:12;;;;;;;1.23;1.13;;;19.70;68.90;;;;;;5156127;27;20031;-68
2023/09/27 06:14:43;;;;;;;0.40;0.40;;;20.00;69.00;;;;;;5162281;27;20594;-68
2023/09/27 06:17:10;;;;;;;0.50;0.50;;;20.40;69.10;;;;;;5177025;27;20022;-67
2023/09/27 06:19:36;;;;;;;0.50;0.50;;;20.80;69.10;;;;;;5166677;27;20068;-67
2023/09/27 06:22:04;;;;;;;0.60;0.60;;;21.20;68.70;;;;;;5155413;27;20019;-67
2023/09/27 06:24:30;;;;;;;1.23;1.13;;;21.50;68.00;;;;;;5155670;27;20494;-67
2023/09/27 06:26:56;;;;;;;0.65;0.65;;;21.70;68.20;;;;;;5155431;27;20126;-68
2023/09/27 06:29:22;;;;;;;0.77;0.77;;;22.00;68.10;;;;;;5166446;27;20424;-67
2023/09/27 06:31:49;;;;;;;0.57;0.57;;;22.30;67.70;;;;;;5159580;27;20379;-68
2023/09/27 06:34:18;;;;;;;0.60;0.60;;;22.50;67.40;;;;;;5175100;27;20525;-67
2023/09/27 06:36:44;;;;;;;0.40;0.40;;;22.80;67.90;;;;;;5172054;27;20034;-67
2023/09/27 06:39:13;;;;;;;0.65;0.65;;;23.20;68.10;;;;;;5157071;27;20038;-67
2023/09/27 06:41:39;;;;;;;0.50;0.50;;;23.60;68.00;;;;;;5168700;27;20483;-67
2023/09/27 06:44:06;;;;;;;0.65;0.65;;;24.00;67.60;;;;;;5173227;27;20468;-67
2023/09/27 06:46:32;;;;;;;0.68;0.68;;;24.30;66.60;;;;;;5175680;27;20022;-67
2023/09/27 06:48:59;;;;;;;0.50;0.50;;;24.70;66.40;;;;;;5171686;27;20034;-68
2023/09/27 06:51:25;;;;;;;0.52;0.52;;;25.10;66.60;;;;;;5167027;27;20390;-68
2023/09/27 06:53:50;;;;;;;0.50;0.50;;;25.60;66.30;;;;;;5173063;27;20073;-68
2023/09/27 06:56:16;;;;;;;0.50;0.50;;;26.00;65.90;;;;;;5176095;27;20062;-67
2023/09/27 06:58:41;;;;;;;0.63;0.63;;;26.50;65.50;;;;;;5170710;27;20132;-68
2023/09/27 07:01:07;;;;;;;0.40;0.40;;;26.90;64.60;;;;;;5174152;27;20040;-69
2023/09/27 07:03:36;;;;;;;0.40;0.40;;;27.30;63.90;;;;;;5173518;27;20026;-67
2023/09/27 07:06:02;;;;;;;0.38;0.38;;;27.70;63.10;;;;;;5157268;27;20019;-68
2023/09/27 07:08:28;;;;;;;1.02;0.93;;;27.90;63.30;;;;;;5160763;27;20026;-68
2023/09/27 07:10:53;;;;;;;0.63;0.63;;;28.30;63.10;;;;;;5169785;27;20045;-68
2023/09/27 07:13:19;;;;;;;20.90;1.75;;;28.60;61.90;;;;;;5175039;27;20034;-68
2023/09/27 07:15:45;;;;;;;0.93;0.77;;;28.70;60.90;;;;;;5174161;27;20387;-69
2023/09/27 07:18:12;;;;;;;0.50;0.50;;;28.90;60.10;;;;;;5162663;27;20542;-67
2023/09/27 07:20:40;;;;;;;1.40;0.65;;;29.20;60.50;;;;;;5169781;27;20030;-69
2023/09/27 07:23:14;;;;;;;0.43;0.43;;;29.50;60.90;;;;;;5173474;27;20034;-70
2023/09/27 07:25:40;;;;;;;1.38;0.60;;;29.90;60.20;;;;;;5173730;27;20018;-69
2023/09/27 07:28:06;;;;;;;0.40;0.40;;;30.30;60.10;;;;;;5171419;27;20029;-68
2023/09/27 07:30:35;;;;;;;1.13;1.00;;;30.70;59.40;;;;;;5174017;27;20027;-66
2023/09/27 07:33:03;;;;;;;0.40;0.40;;;31.10;58.30;;;;;;5174801;27;20090;-66
2023/09/27 07:35:33;;;;;;;0.75;0.75;;;31.50;57.10;;;;;;5173506;27;20391;-67
2023/09/27 07:37:58;;;;;;;0.50;0.50;;;31.80;55.80;;;;;;5169176;27;20098;-66
2023/09/27 07:40:24;;;;;;;0.57;0.57;;;32.20;54.00;;;;;;5154479;27;20065;-67
2023/09/27 07:42:51;;;;;;;0.60;0.60;;;32.40;52.50;;;;;;5153965;27;20027;-67
2023/09/27 07:45:23;;;;;;;0.95;0.80;;;32.60;49.70;;;;;;5164308;27;20517;-68
2023/09/27 07:47:53;;;;;;;0.40;0.40;;;32.70;49.90;;;;;;5158777;27;20034;-68
2023/09/27 07:50:21;;;;;;;0.50;0.50;;;32.80;48.40;;;;;;5173790;27;20022;-69
2023/09/27 07:52:47;;;;;;;0.40;0.40;;;33.00;48.80;;;;;;5173330;27;20022;-69
2023/09/27 07:55:14;;;;;;;0.50;0.50;;;33.30;47.20;;;;;;5166474;27;20475;-68
2023/09/27 07:57:43;;;;;;;2.83;0.77;;;33.60;46.00;;;;;;5170023;27;20458;-69
2023/09/27 08:00:10;;;;;;;0.68;0.68;;;33.80;44.70;;;;;;5174366;27;20030;-68
2023/09/27 08:02:38;;;;;;;0.75;0.75;;;33.90;42.50;;;;;;5174365;27;20029;-67
2023/09/27 08:05:09;;;;;;;0.50;0.50;;;34.00;42.20;;;;;;5174289;27;20101;-67
2023/09/27 08:07:38;;;;;;;0.80;0.80;;;34.10;41.00;;;;;;5169827;27;20489;-68
2023/09/27 08:10:06;;;;;;;0.80;0.80;;;34.30;40.00;;;;;;5164166;27;20058;-66
2023/09/27 08:12:33;;;;;;;0.60;0.60;;;34.40;39.80;;;;;;5166351;27;20097;-66
2023/09/27 08:15:03;;;;;;;0.60;0.60;;;34.60;39.60;;;;;;5165198;27;20035;-68
2023/09/27 08:17:29;;;;;;;0.52;0.52;;;34.80;39.10;;;;;;5152875;27;20555;-69
2023/09/27 08:19:55;;;;;;;0.88;0.88;;;35.10;37.60;;;;;;5164399;27;20027;-68
2023/09/27 08:22:21;;;;;;;0.70;0.70;;;35.30;36.60;;;;;;5153358;27;20071;-67
2023/09/27 08:24:46;;;;;;;0.68;0.68;;;35.40;36.60;;;;;;5152586;27;20471;-68
2023/09/27 08:27:12;;;;;;;0.85;0.85;;;35.50;36.10;;;;;;5153158;27;20026;-67
2023/09/27 08:29:37;;;;;;;0.50;0.50;;;35.60;35.70;;;;;;5163415;27;20319;-67
2023/09/27 08:32:06;;;;;;;1.00;0.70;;;35.60;35.10;;;;;;5152606;27;20027;-69
2023/09/27 08:34:32;;;;;;;0.60;0.60;;;35.50;34.70;;;;;;5153179;27;20019;-68
2023/09/27 08:36:58;;;;;;;0.60;0.60;;;35.40;34.60;;;;;;5158016;27;20529;-68
2023/09/27 08:39:24;;;;;;;0.98;0.98;;;35.40;34.60;;;;;;5173738;27;20038;-70
2023/09/27 08:41:50;;;;;;;1.73;0.90;;;35.40;34.40;;;;;;5175898;27;20114;-70
2023/09/27 08:44:16;;;;;;;1.27;1.17;;;35.30;33.90;;;;;;5172076;27;20395;-70
2023/09/27 08:46:42;;;;;;;1.08;1.08;;;35.20;34.00;;;;;;5156490;27;20023;-69
2023/09/27 08:49:11;;;;;;;0.50;0.50;;;35.10;33.70;;;;;;5167405;27;20105;-70
2023/09/27 08:51:41;;;;;;;0.60;0.60;;;34.80;33.60;;;;;;5178090;27;20022;-70
2023/09/27 08:54:07;;;;;;;0.40;0.40;;;34.40;33.70;;;;;;5177128;27;20475;-70
2023/09/27 08:56:33;;;;;;;0.47;0.47;;;34.10;33.80;;;;;;5178422;27;20095;-69
2023/09/27 08:59:00;;;;;;;0.43;0.43;;;33.70;33.90;;;;;;5171532;27;20041;-69
2023/09/27 09:01:26;;;;;;;0.50;0.50;;;33.30;34.60;;;;;;5177389;27;20495;-69
2023/09/27 09:03:52;;;;;;;0.50;0.50;;;32.90;34.70;;;;;;5178181;27;20058;-69
2023/09/27 09:06:19;;;;;;;0.60;0.60;;;32.60;35.10;;;;;;5177394;27;20055;-70
2023/09/27 09:08:46;;;;;;;0.90;0.70;;;32.30;35.50;;;;;;5173382;27;20155;-70
2023/09/27 09:11:15;;;;;;;0.95;0.65;;;32.00;36.00;;;;;;5166837;27;20121;-70
2023/09/27 09:14:03;;;;;;;0.60;0.60;;;31.70;36.50;;;;;;5175722;27;20030;-70
2023/09/27 09:16:39;;;;;;;0.63;0.63;;;31.30;37.00;;;;;;5175850;27;20069;-70
2023/09/27 09:19:32;;;;;;;0.50;0.50;;;31.00;37.20;;;;;;5176352;27;20030;-70
2023/09/27 09:22:08;;;;;;;0.60;0.60;;;30.90;38.00;;;;;;5158261;27;20031;-70
2023/09/27 09:24:41;;;;;;;0.40;0.40;;;31.00;38.10;;;;;;5180335;27;20459;-70
2023/09/27 09:27:09;;;;;;;0.63;0.63;;;31.00;38.20;;;;;;5169217;27;20019;-70
2023/09/27 09:29:57;;;;;;;0.60;0.60;;;31.10;38.40;;;;;;5176868;27;20029;-70
2023/09/27 09:32:25;;;;;;;0.55;0.55;;;31.50;39.20;;;;;;5180646;27;20493;-70
2023/09/27 09:34:54;;;;;;;0.60;0.60;;;32.00;39.00;;;;;;5174051;27;20043;-70
2023/09/27 09:37:31;;;;;;;0.50;0.50;;;32.50;38.10;;;;;;5166795;27;20026;-70
2023/09/27 09:40:14;;;;;;;1.85;0.50;;;32.60;37.20;;;;;;5167695;27;20030;-70
2023/09/27 09:42:41;;;;;;;0.60;0.60;;;32.70;37.20;;;;;;5160441;27;20018;-71
2023/09/27 09:45:07;;;;;;;0.60;0.60;;;32.90;37.20;;;;;;5170071;27;20037;-70
2023/09/27 09:47:37;;;;;;;0.70;0.70;;;33.20;37.00;;;;;;5180156;27;20034;-70
2023/09/27 09:50:08;;;;;;;1.08;0.80;;;33.60;36.60;;;;;;5170124;27;20030;-70
2023/09/27 09:52:39;;;;;;;0.88;0.65;;;33.90;35.50;;;;;;5159129;27;20094;-68
2023/09/27 09:55:11;;;;;;;0.75;0.65;;;34.00;35.20;;;;;;5170404;27;20054;-68
2023/09/27 09:57:39;;;;;;;0.50;0.50;;;34.00;34.70;;;;;;5174386;27;20547;-69
2023/09/27 10:03:03;;;;;;;3.95;1.48;;;33.80;34.50;;;;;;5177023;27;20082;-68
2023/09/27 10:05:39;;;;;;;0.82;0.82;;;33.80;34.60;;;;;;5174920;27;20030;-70
2023/09/27 10:08:08;;;;;;;0.43;0.43;;;33.50;34.60;;;;;;5172198;27;20030;-68
2023/09/27 10:10:36;;;;;;;0.63;0.63;;;33.30;34.80;;;;;;5161207;27;20481;-70
2023/09/27 10:13:05;;;;;;;0.90;0.85;;;32.90;35.00;;;;;;5165391;27;20026;-67
2023/09/27 10:15:34;;;;;;;1.33;1.15;;;32.50;35.10;;;;;;5163268;27;20062;-69
2023/09/27 10:18:22;;;;;;;0.63;0.63;;;32.10;35.50;;;;;;5161771;27;20436;-67
2023/09/27 10:21:03;;;;;;;0.50;0.50;;;31.60;36.10;;;;;;5162901;27;20045;-68
2023/09/27 10:23:46;;;;;;;0.40;0.40;;;31.30;36.80;;;;;;5170336;27;20545;-67
2023/09/27 10:26:33;;;;;;;0.65;0.65;;;31.10;37.40;;;;;;5176311;27;20084;-68
2023/09/27 10:29:07;;;;;;;0.68;0.68;;;30.90;37.90;;;;;;5170209;27;20057;-69
2023/09/27 10:31:56;;;;;;;1.48;0.95;;;30.80;38.00;;;;;;5162397;27;20105;-68
2023/09/27 10:34:30;;;;;;;0.40;0.40;;;30.70;38.50;;;;;;5154103;27;20075;-67
2023/09/27 10:37:00;;;;;;;0.68;0.68;;;30.80;38.90;;;;;;5167206;27;20488;-68
2023/09/27 10:39:26;;;;;;;0.60;0.60;;;31.00;39.30;;;;;;5165144;27;20463;-67
2023/09/27 10:41:53;;;;;;;0.40;0.40;;;31.30;39.70;;;;;;5168431;27;20154;-69
2023/09/27 10:44:32;;;;;;;0.43;0.43;;;31.60;39.30;;;;;;5175984;27;20141;-69
2023/09/27 10:47:00;;;;;;;0.52;0.52;;;32.00;38.40;;;;;;5176228;27;20033;-68
2023/09/27 10:49:29;;;;;;;0.55;0.55;;;32.30;38.40;;;;;;5169841;27;20023;-68
2023/09/27 10:51:55;;;;;;;0.43;0.43;;;32.60;38.10;;;;;;5175706;27;20546;-67
2023/09/27 10:54:26;;;;;;;0.50;0.50;;;33.00;38.00;;;;;;5176021;27;20155;-69
2023/09/27 10:56:55;;;;;;;0.60;0.60;;;33.30;37.40;;;;;;5176059;27;20026;-70
2023/09/27 10:59:25;;;;;;;0.63;0.63;;;33.60;37.10;;;;;;5168593;27;20038;-69
2023/09/27 11:01:51;;;;;;;0.70;0.70;;;33.90;36.50;;;;;;5174855;27;20034;-69
2023/09/27 11:04:20;;;;;;;0.70;0.70;;;34.20;36.00;;;;;;5172995;27;20488;-68
2023/09/27 11:06:46;;;;;;;0.50;0.50;;;34.50;35.70;;;;;;5159565;27;20470;-69
2023/09/27 11:09:12;;;;;;;0.60;0.60;;;34.80;35.40;;;;;;5167591;27;20041;-68
2023/09/27 11:11:38;;;;;;;0.50;0.50;;;35.00;35.10;;;;;;5158815;27;20175;-68
2023/09/27 11:14:04;;;;;;;0.50;0.50;;;35.30;34.60;;;;;;5174653;27;20113;-68
2023/09/27 11:16:30;;;;;;;1.10;0.80;;;35.40;34.20;;;;;;5166208;27;20109;-68
2023/09/27 11:18:58;;;;;;;0.60;0.60;;;35.40;33.40;;;;;;5164686;27;20078;-69
2023/09/27 11:21:26;;;;;;;0.50;0.50;;;35.30;33.40;;;;;;5158153;27;20029;-67
2023/09/27 11:23:59;;;;;;;0.40;0.40;;;35.30;33.50;;;;;;5175536;27;20053;-68
2023/09/27 11:26:33;;;;;;;0.60;0.60;;;35.30;33.60;;;;;;5163572;27;20037;-68
2023/09/27 11:28:59;;;;;;;0.73;0.60;;;35.30;33.90;;;;;;5170691;27;20034;-69
2023/09/27 11:31:27;;;;;;;3.33;1.67;;;35.40;33.80;;;;;;5154238;27;20019;-68
2023/09/27 11:34:10;;;;;;;0.70;0.70;;;35.50;33.70;;;;;;5160899;27;20114;-68
2023/09/27 11:36:46;;;;;;;0.55;0.55;;;35.60;33.30;;;;;;5163782;27;20022;-67
2023/09/27 11:39:14;;;;;;;0.40;0.40;;;35.60;33.20;;;;;;5153456;27;20043;-68
2023/09/27 11:41:39;;;;;;;0.70;0.70;;;35.70;33.30;;;;;;5156951;27;20048;-68
2023/09/27 11:44:25;;;;;;;0.47;0.47;;;35.80;33.30;;;;;;5174117;27;20125;-68
2023/09/27 11:47:02;;;;;;;0.80;0.80;;;35.90;32.70;;;;;;5173300;27;20022;-68
2023/09/27 11:49:27;;;;;;;0.60;0.60;;;35.80;33.10;;;;;;5162188;27;20375;-68
2023/09/27 11:51:53;;;;;;;1.17;0.85;;;35.70;32.30;;;;;;5151754;27;20029;-68
2023/09/27 11:54:18;;;;;;;0.73;0.73;;;35.60;32.80;;;;;;5169338;27;20140;-69
2023/09/27 11:56:45;;;;;;;0.52;0.52;;;35.60;32.70;;;;;;5171447;27;20052;-68
2023/09/27 11:59:10;;;;;;;0.60;0.60;;;35.50;33.00;;;;;;5166305;27;20030;-68
2023/09/27 12:01:36;;;;;;;1.23;0.85;;;35.70;32.90;;;;;;5153646;27;20122;-68
2023/09/27 12:04:03;;;;;;;0.75;0.75;;;35.70;32.60;;;;;;5170987;27;20055;-68
2023/09/27 12:06:29;;;;;;;0.60;0.60;;;35.70;32.50;;;;;;5153494;27;20019;-68
2023/09/27 12:08:55;;;;;;;0.93;0.90;;;35.70;32.10;;;;;;5153105;27;20121;-69
2023/09/27 12:11:22;;;;;;;0.50;0.50;;;35.40;31.80;;;;;;5155487;27;20033;-69
2023/09/27 12:13:47;;;;;;;0.70;0.70;;;35.20;31.80;;;;;;5172498;27;20058;-69
2023/09/27 12:16:13;;;;;;;0.50;0.50;;;35.00;32.10;;;;;;5173773;27;20054;-70
2023/09/27 12:18:38;;;;;;;0.60;0.60;;;34.80;32.40;;;;;;5169644;27;20026;-70
2023/09/27 12:21:04;;;;;;;0.60;0.60;;;34.80;32.90;;;;;;5158023;27;20118;-69
2023/09/27 12:23:30;;;;;;;0.50;0.50;;;34.70;32.60;;;;;;5155007;27;20448;-70
2023/09/27 12:25:56;;;;;;;0.70;0.70;;;34.70;32.60;;;;;;5155017;27;20098;-69
2023/09/27 12:28:22;;;;;;;0.60;0.60;;;34.60;32.50;;;;;;5160009;27;20028;-69
2023/09/27 12:30:48;;;;;;;0.60;0.60;;;34.60;32.50;;;;;;5159946;27;20026;-69
2023/09/27 12:33:15;;;;;;;0.55;0.55;;;34.50;33.00;;;;;;5155629;27;20041;-70
2023/09/27 12:35:43;;;;;;;0.60;0.60;;;34.70;33.00;;;;;;5162567;27;20027;-69
2023/09/27 12:38:10;;;;;;;0.50;0.50;;;34.70;32.90;;;;;;5159997;27;20034;-70
2023/09/27 12:40:36;;;;;;;1.10;0.77;;;34.70;32.50;;;;;;5163815;27;20022;-70
2023/09/27 12:43:02;;;;;;;0.50;0.50;;;34.50;32.30;;;;;;5176123;27;20463;-69
2023/09/27 12:45:28;;;;;;;0.60;0.60;;;34.30;32.40;;;;;;5162742;27;20031;-69
2023/09/27 12:47:54;;;;;;;0.73;0.68;;;34.10;32.10;;;;;;5164581;27;20026;-69
2023/09/27 12:50:26;;;;;;;0.52;0.52;;;33.80;32.40;;;;;;5163157;27;20031;-69
2023/09/27 12:53:00;;;;;;;0.60;0.60;;;33.60;32.70;;;;;;5161314;27;20026;-69